sensor_id;sensor_type;location;lat;lon;timestamp;P1;durP1;ratioP1;P2;durP2;ratioP2
67164;SDS011;54093;50.014;19.984;2023-03-09T00:04:48;7.63;;;4.05;;
67164;SDS011;54093;50.014;19.984;2023-03-09T00:14:09;6.32;;;4.47;;
67164;SDS011;54093;50.014;19.984;2023-03-09T00:23:30;4.65;;;4.22;;
67164;SDS011;54093;50.014;19.984;2023-03-09T00:32:51;4.45;;;4.05;;
67164;SDS011;54093;50.014;19.984;2023-03-09T00:42:13;6.43;;;4.70;;
67164;SDS011;54093;50.014;19.984;2023-03-09T00:51:34;4.85;;;4.45;;
67164;SDS011;54093;50.014;19.984;2023-03-09T01:00:57;3.92;;;3.60;;
67164;SDS011;54093;50.014;19.984;2023-03-09T01:10:18;4.25;;;3.97;;
67164;SDS011;54093;50.014;19.984;2023-03-09T01:19:39;4.03;;;3.83;;
67164;SDS011;54093;50.014;19.984;2023-03-09T01:29:00;4.00;;;3.70;;
67164;SDS011;54093;50.014;19.984;2023-03-09T01:38:22;4.00;;;3.70;;
67164;SDS011;54093;50.014;19.984;2023-03-09T01:47:44;5.78;;;5.28;;
67164;SDS011;54093;50.014;19.984;2023-03-09T02:06:53;5.60;;;4.40;;
67164;SDS011;54093;50.014;19.984;2023-03-09T02:16:14;4.32;;;4.03;;
67164;SDS011;54093;50.014;19.984;2023-03-09T02:25:37;4.97;;;4.47;;
67164;SDS011;54093;50.014;19.984;2023-03-09T02:35:01;4.60;;;4.20;;
67164;SDS011;54093;50.014;19.984;2023-03-09T02:44:22;3.95;;;3.63;;
67164;SDS011;54093;50.014;19.984;2023-03-09T02:53:43;3.78;;;3.30;;
67164;SDS011;54093;50.014;19.984;2023-03-09T03:03:04;3.05;;;2.85;;
67164;SDS011;54093;50.014;19.984;2023-03-09T03:12:25;2.92;;;2.65;;
67164;SDS011;54093;50.014;19.984;2023-03-09T03:21:46;5.07;;;3.17;;
67164;SDS011;54093;50.014;19.984;2023-03-09T03:31:09;2.40;;;2.30;;
67164;SDS011;54093;50.014;19.984;2023-03-09T03:40:30;2.60;;;2.50;;
67164;SDS011;54093;50.014;19.984;2023-03-09T03:49:51;2.90;;;2.70;;
67164;SDS011;54093;50.014;19.984;2023-03-09T03:59:12;2.50;;;2.33;;
67164;SDS011;54093;50.014;19.984;2023-03-09T04:08:32;2.80;;;2.70;;
67164;SDS011;54093;50.014;19.984;2023-03-09T04:17:54;2.97;;;2.78;;
67164;SDS011;54093;50.014;19.984;2023-03-09T04:27:14;2.00;;;1.90;;
67164;SDS011;54093;50.014;19.984;2023-03-09T04:36:35;2.45;;;2.25;;
67164;SDS011;54093;50.014;19.984;2023-03-09T04:45:56;2.00;;;1.90;;
67164;SDS011;54093;50.014;19.984;2023-03-09T04:55:17;1.80;;;1.70;;
67164;SDS011;54093;50.014;19.984;2023-03-09T05:04:38;1.63;;;1.52;;
67164;SDS011;54093;50.014;19.984;2023-03-09T05:13:59;3.45;;;2.38;;
67164;SDS011;54093;50.014;19.984;2023-03-09T05:23:20;2.30;;;2.10;;
67164;SDS011;54093;50.014;19.984;2023-03-09T05:32:41;3.17;;;2.22;;
67164;SDS011;54093;50.014;19.984;2023-03-09T05:42:01;2.13;;;2.03;;
67164;SDS011;54093;50.014;19.984;2023-03-09T05:51:22;2.08;;;1.98;;
67164;SDS011;54093;50.014;19.984;2023-03-09T06:00:43;1.83;;;1.73;;
67164;SDS011;54093;50.014;19.984;2023-03-09T06:10:04;1.67;;;1.67;;
67164;SDS011;54093;50.014;19.984;2023-03-09T06:19:25;2.10;;;2.00;;
67164;SDS011;54093;50.014;19.984;2023-03-09T06:28:46;2.55;;;1.83;;
67164;SDS011;54093;50.014;19.984;2023-03-09T06:38:07;1.58;;;1.58;;
67164;SDS011;54093;50.014;19.984;2023-03-09T06:47:28;1.88;;;1.77;;
67164;SDS011;54093;50.014;19.984;2023-03-09T06:56:50;1.60;;;1.50;;
67164;SDS011;54093;50.014;19.984;2023-03-09T07:06:11;1.75;;;1.65;;
67164;SDS011;54093;50.014;19.984;2023-03-09T07:15:32;4.15;;;1.67;;
67164;SDS011;54093;50.014;19.984;2023-03-09T07:24:53;1.80;;;1.70;;
67164;SDS011;54093;50.014;19.984;2023-03-09T07:34:13;1.80;;;1.70;;
67164;SDS011;54093;50.014;19.984;2023-03-09T07:43:34;1.40;;;1.40;;
67164;SDS011;54093;50.014;19.984;2023-03-09T07:53:04;2.97;;;1.70;;
67164;SDS011;54093;50.014;19.984;2023-03-09T08:02:25;3.13;;;2.03;;
67164;SDS011;54093;50.014;19.984;2023-03-09T08:11:47;3.13;;;2.00;;
67164;SDS011;54093;50.014;19.984;2023-03-09T08:21:10;1.63;;;1.52;;
67164;SDS011;54093;50.014;19.984;2023-03-09T08:30:33;2.95;;;2.55;;
67164;SDS011;54093;50.014;19.984;2023-03-09T08:39:54;1.90;;;1.80;;
67164;SDS011;54093;50.014;19.984;2023-03-09T08:49:14;3.83;;;1.70;;
67164;SDS011;54093;50.014;19.984;2023-03-09T08:58:35;1.98;;;1.88;;
67164;SDS011;54093;50.014;19.984;2023-03-09T09:07:57;1.92;;;1.70;;
67164;SDS011;54093;50.014;19.984;2023-03-09T09:17:18;1.70;;;1.60;;
67164;SDS011;54093;50.014;19.984;2023-03-09T09:26:39;1.75;;;1.65;;
67164;SDS011;54093;50.014;19.984;2023-03-09T09:36:09;2.45;;;2.17;;
67164;SDS011;54093;50.014;19.984;2023-03-09T09:45:32;3.10;;;2.00;;
67164;SDS011;54093;50.014;19.984;2023-03-09T10:04:29;4.38;;;2.20;;
67164;SDS011;54093;50.014;19.984;2023-03-09T10:23:33;2.00;;;1.90;;
67164;SDS011;54093;50.014;19.984;2023-03-09T10:32:56;2.55;;;2.35;;
67164;SDS011;54093;50.014;19.984;2023-03-09T10:42:24;3.40;;;2.93;;
67164;SDS011;54093;50.014;19.984;2023-03-09T10:52:20;2.70;;;2.08;;
67164;SDS011;54093;50.014;19.984;2023-03-09T11:01:39;1.85;;;1.75;;
67164;SDS011;54093;50.014;19.984;2023-03-09T11:11:03;5.90;;;3.00;;
67164;SDS011;54093;50.014;19.984;2023-03-09T11:20:36;7.38;;;3.58;;
67164;SDS011;54093;50.014;19.984;2023-03-09T11:39:27;7.28;;;4.95;;
67164;SDS011;54093;50.014;19.984;2023-03-09T11:48:53;4.10;;;3.90;;
67164;SDS011;54093;50.014;19.984;2023-03-09T11:58:30;5.50;;;3.75;;
67164;SDS011;54093;50.014;19.984;2023-03-09T12:17:26;3.25;;;2.70;;
67164;SDS011;54093;50.014;19.984;2023-03-09T12:26:55;2.20;;;2.10;;
67164;SDS011;54093;50.014;19.984;2023-03-09T12:36:25;1.83;;;1.73;;
67164;SDS011;54093;50.014;19.984;2023-03-09T12:45:54;1.98;;;1.88;;
67164;SDS011;54093;50.014;19.984;2023-03-09T13:15:05;1.90;;;1.80;;
67164;SDS011;54093;50.014;19.984;2023-03-09T13:24:39;1.77;;;1.67;;
67164;SDS011;54093;50.014;19.984;2023-03-09T13:34:02;1.80;;;1.70;;
67164;SDS011;54093;50.014;19.984;2023-03-09T13:43:24;1.40;;;1.40;;
67164;SDS011;54093;50.014;19.984;2023-03-09T13:53:01;1.80;;;1.70;;
67164;SDS011;54093;50.014;19.984;2023-03-09T14:02:29;2.50;;;2.03;;
67164;SDS011;54093;50.014;19.984;2023-03-09T14:11:52;2.10;;;2.00;;
67164;SDS011;54093;50.014;19.984;2023-03-09T14:30:44;2.20;;;2.08;;
67164;SDS011;54093;50.014;19.984;2023-03-09T14:40:38;2.67;;;2.47;;
67164;SDS011;54093;50.014;19.984;2023-03-09T14:49:54;3.20;;;2.90;;
67164;SDS011;54093;50.014;19.984;2023-03-09T14:59:15;5.47;;;4.97;;
67164;SDS011;54093;50.014;19.984;2023-03-09T15:08:38;3.83;;;3.53;;
67164;SDS011;54093;50.014;19.984;2023-03-09T15:17:59;4.20;;;3.90;;
67164;SDS011;54093;50.014;19.984;2023-03-09T15:27:20;4.60;;;4.25;;
67164;SDS011;54093;50.014;19.984;2023-03-09T15:36:41;4.28;;;3.97;;
67164;SDS011;54093;50.014;19.984;2023-03-09T15:46:03;4.65;;;4.25;;
67164;SDS011;54093;50.014;19.984;2023-03-09T15:55:25;6.28;;;4.30;;
67164;SDS011;54093;50.014;19.984;2023-03-09T16:04:47;4.90;;;4.60;;
67164;SDS011;54093;50.014;19.984;2023-03-09T16:14:08;7.05;;;4.72;;
67164;SDS011;54093;50.014;19.984;2023-03-09T16:23:29;8.07;;;4.90;;
67164;SDS011;54093;50.014;19.984;2023-03-09T16:32:51;5.07;;;4.75;;
67164;SDS011;54093;50.014;19.984;2023-03-09T16:42:13;6.07;;;5.57;;
67164;SDS011;54093;50.014;19.984;2023-03-09T16:51:34;6.80;;;6.13;;
67164;SDS011;54093;50.014;19.984;2023-03-09T17:00:55;8.50;;;6.68;;
67164;SDS011;54093;50.014;19.984;2023-03-09T17:10:18;7.38;;;6.68;;
67164;SDS011;54093;50.014;19.984;2023-03-09T17:19:42;9.07;;;7.73;;
67164;SDS011;54093;50.014;19.984;2023-03-09T17:29:03;7.25;;;6.65;;
67164;SDS011;54093;50.014;19.984;2023-03-09T17:38:26;7.85;;;7.15;;
67164;SDS011;54093;50.014;19.984;2023-03-09T17:47:47;8.25;;;7.53;;
67164;SDS011;54093;50.014;19.984;2023-03-09T17:57:10;8.23;;;6.00;;
67164;SDS011;54093;50.014;19.984;2023-03-09T18:06:39;6.72;;;6.13;;
67164;SDS011;54093;50.014;19.984;2023-03-09T18:16:02;5.88;;;5.38;;
67164;SDS011;54093;50.014;19.984;2023-03-09T18:25:23;9.20;;;8.32;;
67164;SDS011;54093;50.014;19.984;2023-03-09T18:34:45;6.28;;;5.78;;
67164;SDS011;54093;50.014;19.984;2023-03-09T18:44:06;12.10;;;9.88;;
67164;SDS011;54093;50.014;19.984;2023-03-09T18:53:29;10.30;;;7.45;;
67164;SDS011;54093;50.014;19.984;2023-03-09T19:02:51;11.73;;;10.52;;
67164;SDS011;54093;50.014;19.984;2023-03-09T19:12:12;11.25;;;10.20;;
67164;SDS011;54093;50.014;19.984;2023-03-09T19:21:33;8.82;;;7.63;;
67164;SDS011;54093;50.014;19.984;2023-03-09T19:31:00;10.98;;;8.35;;
67164;SDS011;54093;50.014;19.984;2023-03-09T19:40:29;12.65;;;9.05;;
67164;SDS011;54093;50.014;19.984;2023-03-09T19:49:50;12.38;;;8.57;;
67164;SDS011;54093;50.014;19.984;2023-03-09T19:59:12;15.48;;;12.75;;
67164;SDS011;54093;50.014;19.984;2023-03-09T20:08:36;15.60;;;13.10;;
67164;SDS011;54093;50.014;19.984;2023-03-09T20:17:56;9.18;;;8.30;;
67164;SDS011;54093;50.014;19.984;2023-03-09T20:27:17;15.05;;;11.30;;
67164;SDS011;54093;50.014;19.984;2023-03-09T20:36:38;12.23;;;10.38;;
67164;SDS011;54093;50.014;19.984;2023-03-09T20:46:00;9.40;;;8.35;;
67164;SDS011;54093;50.014;19.984;2023-03-09T20:55:23;14.82;;;9.25;;
67164;SDS011;54093;50.014;19.984;2023-03-09T21:04:43;9.57;;;8.73;;
67164;SDS011;54093;50.014;19.984;2023-03-09T21:14:04;9.10;;;8.20;;
67164;SDS011;54093;50.014;19.984;2023-03-09T21:23:25;14.80;;;9.90;;
67164;SDS011;54093;50.014;19.984;2023-03-09T21:32:47;15.10;;;12.20;;
67164;SDS011;54093;50.014;19.984;2023-03-09T21:42:08;11.82;;;10.23;;
67164;SDS011;54093;50.014;19.984;2023-03-09T21:51:30;18.48;;;12.50;;
67164;SDS011;54093;50.014;19.984;2023-03-09T22:00:51;14.27;;;9.80;;
67164;SDS011;54093;50.014;19.984;2023-03-09T22:10:11;16.15;;;12.13;;
67164;SDS011;54093;50.014;19.984;2023-03-09T22:19:34;14.63;;;9.35;;
67164;SDS011;54093;50.014;19.984;2023-03-09T22:28:55;19.35;;;11.05;;
67164;SDS011;54093;50.014;19.984;2023-03-09T22:38:16;16.38;;;12.80;;
67164;SDS011;54093;50.014;19.984;2023-03-09T22:47:38;11.43;;;9.43;;
67164;SDS011;54093;50.014;19.984;2023-03-09T22:56:59;27.48;;;15.98;;
67164;SDS011;54093;50.014;19.984;2023-03-09T23:06:20;23.85;;;15.18;;
67164;SDS011;54093;50.014;19.984;2023-03-09T23:15:44;21.33;;;14.90;;
67164;SDS011;54093;50.014;19.984;2023-03-09T23:25:07;17.17;;;13.00;;
67164;SDS011;54093;50.014;19.984;2023-03-09T23:34:28;18.48;;;13.75;;
67164;SDS011;54093;50.014;19.984;2023-03-09T23:43:49;18.23;;;10.32;;
67164;SDS011;54093;50.014;19.984;2023-03-09T23:53:10;14.52;;;9.55;;
